sensor_id;sensor_type;location;lat;lon;timestamp;P1;durP1;ratioP1;P2;durP2;ratioP2
51949;SDS011;37974;53.218;6.640;2024-03-08T00:01:55;1063.75;;;950.45;;
51949;SDS011;37974;53.218;6.640;2024-03-08T00:04:21;1276.90;;;995.95;;
51949;SDS011;37974;53.218;6.640;2024-03-08T00:06:47;1025.32;;;921.65;;
51949;SDS011;37974;53.218;6.640;2024-03-08T00:09:13;1219.40;;;990.92;;
51949;SDS011;37974;53.218;6.640;2024-03-08T00:11:39;1270.22;;;991.33;;
51949;SDS011;37974;53.218;6.640;2024-03-08T00:14:05;1326.05;;;998.50;;
51949;SDS011;37974;53.218;6.640;2024-03-08T00:16:32;1128.40;;;971.13;;
51949;SDS011;37974;53.218;6.640;2024-03-08T00:18:58;1423.28;;;999.90;;
51949;SDS011;37974;53.218;6.640;2024-03-08T00:21:24;1219.47;;;983.33;;
51949;SDS011;37974;53.218;6.640;2024-03-08T00:23:52;1218.07;;;984.97;;
51949;SDS011;37974;53.218;6.640;2024-03-08T00:26:20;1305.28;;;996.80;;
51949;SDS011;37974;53.218;6.640;2024-03-08T00:28:47;1280.95;;;997.00;;
51949;SDS011;37974;53.218;6.640;2024-03-08T00:31:14;1320.18;;;997.13;;
51949;SDS011;37974;53.218;6.640;2024-03-08T00:33:42;1212.63;;;986.05;;
51949;SDS011;37974;53.218;6.640;2024-03-08T00:36:07;1454.05;;;999.90;;
51949;SDS011;37974;53.218;6.640;2024-03-08T00:38:33;1465.88;;;999.90;;
51949;SDS011;37974;53.218;6.640;2024-03-08T00:40:59;1297.55;;;993.10;;
51949;SDS011;37974;53.218;6.640;2024-03-08T00:43:25;1316.75;;;996.88;;
51949;SDS011;37974;53.218;6.640;2024-03-08T00:45:51;1549.13;;;999.90;;
51949;SDS011;37974;53.218;6.640;2024-03-08T00:48:16;1346.30;;;998.17;;
51949;SDS011;37974;53.218;6.640;2024-03-08T00:50:43;1623.45;;;999.90;;
51949;SDS011;37974;53.218;6.640;2024-03-08T00:53:15;1628.70;;;999.90;;
51949;SDS011;37974;53.218;6.640;2024-03-08T00:55:41;1419.13;;;999.90;;
51949;SDS011;37974;53.218;6.640;2024-03-08T00:58:07;1606.72;;;999.90;;
51949;SDS011;37974;53.218;6.640;2024-03-08T01:00:34;1280.30;;;991.63;;
51949;SDS011;37974;53.218;6.640;2024-03-08T01:03:00;1312.25;;;992.08;;
51949;SDS011;37974;53.218;6.640;2024-03-08T01:05:25;1125.15;;;964.08;;
51949;SDS011;37974;53.218;6.640;2024-03-08T01:07:51;1422.57;;;991.17;;
51949;SDS011;37974;53.218;6.640;2024-03-08T01:10:17;1359.78;;;995.28;;
51949;SDS011;37974;53.218;6.640;2024-03-08T01:12:42;1746.72;;;999.90;;
51949;SDS011;37974;53.218;6.640;2024-03-08T01:15:09;1659.13;;;999.90;;
51949;SDS011;37974;53.218;6.640;2024-03-08T01:17:35;1287.72;;;976.05;;
51949;SDS011;37974;53.218;6.640;2024-03-08T01:20:01;1763.95;;;999.90;;
51949;SDS011;37974;53.218;6.640;2024-03-08T01:22:28;1574.80;;;999.90;;
51949;SDS011;37974;53.218;6.640;2024-03-08T01:24:55;1967.72;;;999.90;;
51949;SDS011;37974;53.218;6.640;2024-03-08T01:27:21;1678.80;;;999.90;;
51949;SDS011;37974;53.218;6.640;2024-03-08T01:29:47;1770.32;;;999.90;;
51949;SDS011;37974;53.218;6.640;2024-03-08T01:32:13;1931.82;;;999.90;;
51949;SDS011;37974;53.218;6.640;2024-03-08T01:34:39;1704.82;;;999.90;;
51949;SDS011;37974;53.218;6.640;2024-03-08T01:37:05;1740.95;;;999.90;;
51949;SDS011;37974;53.218;6.640;2024-03-08T01:39:31;1614.22;;;999.90;;
51949;SDS011;37974;53.218;6.640;2024-03-08T01:41:57;1865.13;;;999.90;;
51949;SDS011;37974;53.218;6.640;2024-03-08T01:44:24;1573.65;;;999.90;;
51949;SDS011;37974;53.218;6.640;2024-03-08T01:46:50;1930.10;;;999.90;;
51949;SDS011;37974;53.218;6.640;2024-03-08T01:49:17;1648.85;;;999.90;;
51949;SDS011;37974;53.218;6.640;2024-03-08T01:51:46;1980.35;;;999.90;;
51949;SDS011;37974;53.218;6.640;2024-03-08T01:54:14;1872.80;;;999.90;;
51949;SDS011;37974;53.218;6.640;2024-03-08T01:56:41;1542.22;;;999.90;;
51949;SDS011;37974;53.218;6.640;2024-03-08T01:59:08;1912.82;;;999.90;;
51949;SDS011;37974;53.218;6.640;2024-03-08T02:01:34;1709.40;;;999.90;;
51949;SDS011;37974;53.218;6.640;2024-03-08T02:04:00;1696.60;;;999.90;;
51949;SDS011;37974;53.218;6.640;2024-03-08T02:06:26;1999.90;;;999.90;;
51949;SDS011;37974;53.218;6.640;2024-03-08T02:08:52;1909.95;;;999.90;;
51949;SDS011;37974;53.218;6.640;2024-03-08T02:11:18;1953.90;;;999.90;;
51949;SDS011;37974;53.218;6.640;2024-03-08T02:13:45;1947.78;;;999.90;;
51949;SDS011;37974;53.218;6.640;2024-03-08T02:16:11;1999.90;;;999.90;;
51949;SDS011;37974;53.218;6.640;2024-03-08T02:18:37;1999.90;;;999.90;;
51949;SDS011;37974;53.218;6.640;2024-03-08T02:21:04;1977.47;;;999.90;;
51949;SDS011;37974;53.218;6.640;2024-03-08T02:23:31;1999.90;;;999.90;;
51949;SDS011;37974;53.218;6.640;2024-03-08T02:25:58;1999.90;;;999.90;;
51949;SDS011;37974;53.218;6.640;2024-03-08T02:28:23;1988.90;;;999.90;;
51949;SDS011;37974;53.218;6.640;2024-03-08T02:30:51;1999.90;;;999.90;;
51949;SDS011;37974;53.218;6.640;2024-03-08T02:33:20;1994.28;;;999.90;;
51949;SDS011;37974;53.218;6.640;2024-03-08T02:35:47;1994.50;;;999.90;;
51949;SDS011;37974;53.218;6.640;2024-03-08T02:38:14;1883.32;;;999.90;;
51949;SDS011;37974;53.218;6.640;2024-03-08T02:40:42;1985.00;;;999.90;;
51949;SDS011;37974;53.218;6.640;2024-03-08T02:43:09;1982.10;;;999.90;;
51949;SDS011;37974;53.218;6.640;2024-03-08T02:45:35;1872.57;;;999.90;;
51949;SDS011;37974;53.218;6.640;2024-03-08T02:48:01;1997.30;;;999.90;;
51949;SDS011;37974;53.218;6.640;2024-03-08T02:50:27;1999.90;;;999.90;;
51949;SDS011;37974;53.218;6.640;2024-03-08T02:52:53;1999.90;;;999.90;;
51949;SDS011;37974;53.218;6.640;2024-03-08T02:55:19;1999.90;;;999.90;;
51949;SDS011;37974;53.218;6.640;2024-03-08T02:57:45;1999.90;;;999.90;;
51949;SDS011;37974;53.218;6.640;2024-03-08T03:00:13;1999.90;;;999.90;;
51949;SDS011;37974;53.218;6.640;2024-03-08T03:02:39;1995.03;;;999.90;;
51949;SDS011;37974;53.218;6.640;2024-03-08T03:05:05;1999.90;;;999.90;;
51949;SDS011;37974;53.218;6.640;2024-03-08T03:07:32;1999.90;;;999.90;;
51949;SDS011;37974;53.218;6.640;2024-03-08T03:09:59;1999.90;;;999.90;;
51949;SDS011;37974;53.218;6.640;2024-03-08T03:12:26;1999.90;;;999.90;;
51949;SDS011;37974;53.218;6.640;2024-03-08T03:14:53;1999.90;;;999.90;;
51949;SDS011;37974;53.218;6.640;2024-03-08T03:17:19;1939.45;;;999.90;;
51949;SDS011;37974;53.218;6.640;2024-03-08T03:19:45;1999.90;;;999.90;;
51949;SDS011;37974;53.218;6.640;2024-03-08T03:22:12;1999.90;;;999.90;;
51949;SDS011;37974;53.218;6.640;2024-03-08T03:24:37;1992.68;;;999.90;;
51949;SDS011;37974;53.218;6.640;2024-03-08T03:27:04;1999.90;;;999.90;;
51949;SDS011;37974;53.218;6.640;2024-03-08T03:29:39;1999.90;;;999.90;;
51949;SDS011;37974;53.218;6.640;2024-03-08T03:32:07;1999.90;;;999.90;;
51949;SDS011;37974;53.218;6.640;2024-03-08T03:34:34;1999.90;;;999.90;;
51949;SDS011;37974;53.218;6.640;2024-03-08T03:37:03;1999.90;;;999.90;;
51949;SDS011;37974;53.218;6.640;2024-03-08T03:39:29;1999.90;;;999.90;;
51949;SDS011;37974;53.218;6.640;2024-03-08T03:41:57;1999.90;;;999.90;;
51949;SDS011;37974;53.218;6.640;2024-03-08T03:44:23;1999.90;;;999.90;;
51949;SDS011;37974;53.218;6.640;2024-03-08T03:46:49;1999.90;;;999.90;;
51949;SDS011;37974;53.218;6.640;2024-03-08T03:49:17;1999.90;;;999.90;;
51949;SDS011;37974;53.218;6.640;2024-03-08T03:51:42;1999.90;;;999.90;;
51949;SDS011;37974;53.218;6.640;2024-03-08T03:54:09;1999.90;;;999.90;;
51949;SDS011;37974;53.218;6.640;2024-03-08T03:56:35;1999.90;;;999.90;;
51949;SDS011;37974;53.218;6.640;2024-03-08T03:59:01;1999.90;;;999.90;;
51949;SDS011;37974;53.218;6.640;2024-03-08T04:01:27;1999.90;;;999.90;;
51949;SDS011;37974;53.218;6.640;2024-03-08T04:03:54;1999.90;;;999.90;;
51949;SDS011;37974;53.218;6.640;2024-03-08T04:06:20;1999.90;;;999.90;;
51949;SDS011;37974;53.218;6.640;2024-03-08T04:08:45;1999.90;;;999.90;;
51949;SDS011;37974;53.218;6.640;2024-03-08T04:11:11;1999.90;;;999.90;;
51949;SDS011;37974;53.218;6.640;2024-03-08T04:13:37;1999.90;;;999.90;;
51949;SDS011;37974;53.218;6.640;2024-03-08T04:16:03;1999.90;;;999.90;;
51949;SDS011;37974;53.218;6.640;2024-03-08T04:18:33;1999.90;;;999.90;;
51949;SDS011;37974;53.218;6.640;2024-03-08T04:21:01;1999.90;;;999.90;;
51949;SDS011;37974;53.218;6.640;2024-03-08T04:23:27;1999.90;;;999.90;;
51949;SDS011;37974;53.218;6.640;2024-03-08T04:25:53;1999.90;;;999.90;;
51949;SDS011;37974;53.218;6.640;2024-03-08T04:28:19;1999.90;;;999.90;;
51949;SDS011;37974;53.218;6.640;2024-03-08T04:30:45;1999.90;;;999.90;;
51949;SDS011;37974;53.218;6.640;2024-03-08T04:33:11;1999.90;;;999.90;;
51949;SDS011;37974;53.218;6.640;2024-03-08T04:35:37;1999.90;;;999.90;;
51949;SDS011;37974;53.218;6.640;2024-03-08T04:38:02;1999.90;;;999.90;;
51949;SDS011;37974;53.218;6.640;2024-03-08T04:40:30;1999.90;;;999.90;;
51949;SDS011;37974;53.218;6.640;2024-03-08T04:42:56;1999.90;;;999.90;;
51949;SDS011;37974;53.218;6.640;2024-03-08T04:45:23;1999.90;;;999.90;;
51949;SDS011;37974;53.218;6.640;2024-03-08T04:47:51;1999.90;;;999.90;;
51949;SDS011;37974;53.218;6.640;2024-03-08T04:50:18;1999.90;;;999.90;;
51949;SDS011;37974;53.218;6.640;2024-03-08T04:52:43;1999.90;;;999.90;;
51949;SDS011;37974;53.218;6.640;2024-03-08T04:55:09;1999.90;;;999.90;;
51949;SDS011;37974;53.218;6.640;2024-03-08T04:57:35;1999.90;;;999.90;;
51949;SDS011;37974;53.218;6.640;2024-03-08T05:00:02;1999.90;;;999.90;;
51949;SDS011;37974;53.218;6.640;2024-03-08T05:02:32;1999.90;;;999.90;;
51949;SDS011;37974;53.218;6.640;2024-03-08T05:04:58;1999.90;;;999.90;;
51949;SDS011;37974;53.218;6.640;2024-03-08T05:07:24;1999.90;;;999.90;;
51949;SDS011;37974;53.218;6.640;2024-03-08T05:09:51;1999.90;;;999.90;;
51949;SDS011;37974;53.218;6.640;2024-03-08T05:12:17;1999.90;;;999.90;;
51949;SDS011;37974;53.218;6.640;2024-03-08T05:14:45;1999.90;;;999.90;;
51949;SDS011;37974;53.218;6.640;2024-03-08T05:17:14;1999.90;;;999.90;;
51949;SDS011;37974;53.218;6.640;2024-03-08T05:19:40;1999.90;;;999.90;;
51949;SDS011;37974;53.218;6.640;2024-03-08T05:22:06;1999.90;;;999.90;;
51949;SDS011;37974;53.218;6.640;2024-03-08T05:24:31;1999.90;;;999.90;;
51949;SDS011;37974;53.218;6.640;2024-03-08T05:26:58;1999.90;;;999.90;;
51949;SDS011;37974;53.218;6.640;2024-03-08T05:29:25;1999.90;;;999.90;;
51949;SDS011;37974;53.218;6.640;2024-03-08T05:31:51;1999.90;;;999.90;;
51949;SDS011;37974;53.218;6.640;2024-03-08T05:34:17;1999.90;;;999.90;;
51949;SDS011;37974;53.218;6.640;2024-03-08T05:36:45;1999.90;;;999.90;;
51949;SDS011;37974;53.218;6.640;2024-03-08T05:39:12;1999.90;;;999.90;;
51949;SDS011;37974;53.218;6.640;2024-03-08T05:41:38;1999.90;;;999.90;;
51949;SDS011;37974;53.218;6.640;2024-03-08T05:44:05;1999.90;;;999.90;;
51949;SDS011;37974;53.218;6.640;2024-03-08T05:46:31;1999.90;;;999.90;;
51949;SDS011;37974;53.218;6.640;2024-03-08T05:48:57;1999.90;;;999.90;;
51949;SDS011;37974;53.218;6.640;2024-03-08T05:51:24;1999.90;;;999.90;;
51949;SDS011;37974;53.218;6.640;2024-03-08T05:53:52;1999.90;;;999.90;;
51949;SDS011;37974;53.218;6.640;2024-03-08T05:56:21;1999.90;;;999.90;;
51949;SDS011;37974;53.218;6.640;2024-03-08T05:58:48;1999.90;;;999.90;;
51949;SDS011;37974;53.218;6.640;2024-03-08T06:01:15;1999.90;;;999.90;;
51949;SDS011;37974;53.218;6.640;2024-03-08T06:03:41;1999.90;;;999.90;;
51949;SDS011;37974;53.218;6.640;2024-03-08T06:06:12;1999.90;;;999.90;;
51949;SDS011;37974;53.218;6.640;2024-03-08T06:08:38;1999.90;;;999.90;;
51949;SDS011;37974;53.218;6.640;2024-03-08T06:11:04;1999.90;;;999.90;;
51949;SDS011;37974;53.218;6.640;2024-03-08T06:13:32;1999.90;;;999.90;;
51949;SDS011;37974;53.218;6.640;2024-03-08T06:15:59;1999.90;;;999.90;;
51949;SDS011;37974;53.218;6.640;2024-03-08T06:18:25;1999.90;;;999.90;;
51949;SDS011;37974;53.218;6.640;2024-03-08T06:20:51;1999.90;;;999.90;;
51949;SDS011;37974;53.218;6.640;2024-03-08T06:23:17;1999.90;;;999.90;;
51949;SDS011;37974;53.218;6.640;2024-03-08T06:25:44;1999.90;;;999.90;;
51949;SDS011;37974;53.218;6.640;2024-03-08T06:28:10;1999.90;;;999.90;;
51949;SDS011;37974;53.218;6.640;2024-03-08T06:30:35;1999.90;;;999.90;;
51949;SDS011;37974;53.218;6.640;2024-03-08T06:33:01;1999.90;;;999.90;;
51949;SDS011;37974;53.218;6.640;2024-03-08T06:35:27;1999.90;;;999.90;;
51949;SDS011;37974;53.218;6.640;2024-03-08T06:37:53;1999.90;;;999.90;;
51949;SDS011;37974;53.218;6.640;2024-03-08T06:40:19;1999.90;;;999.90;;
51949;SDS011;37974;53.218;6.640;2024-03-08T06:42:44;1999.90;;;999.90;;
51949;SDS011;37974;53.218;6.640;2024-03-08T06:45:10;1999.90;;;999.90;;
51949;SDS011;37974;53.218;6.640;2024-03-08T06:47:37;1999.90;;;999.90;;
51949;SDS011;37974;53.218;6.640;2024-03-08T06:50:03;1999.90;;;999.90;;
51949;SDS011;37974;53.218;6.640;2024-03-08T06:52:29;1999.90;;;999.90;;
51949;SDS011;37974;53.218;6.640;2024-03-08T06:54:55;1999.90;;;999.90;;
51949;SDS011;37974;53.218;6.640;2024-03-08T06:57:22;1999.90;;;999.90;;
51949;SDS011;37974;53.218;6.640;2024-03-08T06:59:48;1999.90;;;999.90;;
51949;SDS011;37974;53.218;6.640;2024-03-08T07:02:14;1999.90;;;999.90;;
51949;SDS011;37974;53.218;6.640;2024-03-08T07:04:40;1999.90;;;999.90;;
51949;SDS011;37974;53.218;6.640;2024-03-08T07:07:06;1999.90;;;999.90;;
51949;SDS011;37974;53.218;6.640;2024-03-08T07:09:38;1999.90;;;999.90;;
51949;SDS011;37974;53.218;6.640;2024-03-08T07:12:04;1999.90;;;999.90;;
51949;SDS011;37974;53.218;6.640;2024-03-08T07:14:30;1999.90;;;999.90;;
51949;SDS011;37974;53.218;6.640;2024-03-08T07:16:56;1999.90;;;999.90;;
51949;SDS011;37974;53.218;6.640;2024-03-08T07:19:22;1999.90;;;999.90;;
51949;SDS011;37974;53.218;6.640;2024-03-08T07:21:49;1999.90;;;999.90;;
51949;SDS011;37974;53.218;6.640;2024-03-08T07:24:14;1999.90;;;999.90;;
51949;SDS011;37974;53.218;6.640;2024-03-08T07:27:04;1999.90;;;999.90;;
51949;SDS011;37974;53.218;6.640;2024-03-08T07:29:30;1999.90;;;999.90;;
51949;SDS011;37974;53.218;6.640;2024-03-08T07:31:59;1999.90;;;999.90;;
51949;SDS011;37974;53.218;6.640;2024-03-08T07:34:25;1999.90;;;999.90;;
51949;SDS011;37974;53.218;6.640;2024-03-08T07:36:51;1999.90;;;999.90;;
51949;SDS011;37974;53.218;6.640;2024-03-08T07:39:17;1999.90;;;999.90;;
51949;SDS011;37974;53.218;6.640;2024-03-08T07:41:43;1999.90;;;999.90;;
51949;SDS011;37974;53.218;6.640;2024-03-08T07:44:09;1999.90;;;999.90;;
51949;SDS011;37974;53.218;6.640;2024-03-08T07:46:35;1975.80;;;999.90;;
51949;SDS011;37974;53.218;6.640;2024-03-08T07:49:02;1999.90;;;999.90;;
51949;SDS011;37974;53.218;6.640;2024-03-08T07:51:28;1992.40;;;999.90;;
51949;SDS011;37974;53.218;6.640;2024-03-08T07:53:54;1999.90;;;999.90;;
51949;SDS011;37974;53.218;6.640;2024-03-08T07:56:20;1962.63;;;999.90;;
51949;SDS011;37974;53.218;6.640;2024-03-08T07:58:47;1999.90;;;999.90;;
51949;SDS011;37974;53.218;6.640;2024-03-08T08:01:17;1999.90;;;999.90;;
51949;SDS011;37974;53.218;6.640;2024-03-08T08:03:43;1867.82;;;999.90;;
51949;SDS011;37974;53.218;6.640;2024-03-08T08:06:09;1723.85;;;999.90;;
51949;SDS011;37974;53.218;6.640;2024-03-08T08:08:35;1949.15;;;999.90;;
51949;SDS011;37974;53.218;6.640;2024-03-08T08:11:01;1746.20;;;999.90;;
51949;SDS011;37974;53.218;6.640;2024-03-08T08:13:27;1612.75;;;999.90;;
51949;SDS011;37974;53.218;6.640;2024-03-08T08:15:57;1929.68;;;999.90;;
51949;SDS011;37974;53.218;6.640;2024-03-08T08:18:23;1581.32;;;999.90;;
51949;SDS011;37974;53.218;6.640;2024-03-08T08:20:50;1691.95;;;999.90;;
51949;SDS011;37974;53.218;6.640;2024-03-08T08:23:17;1569.47;;;990.85;;
51949;SDS011;37974;53.218;6.640;2024-03-08T08:25:45;1484.90;;;974.03;;
51949;SDS011;37974;53.218;6.640;2024-03-08T08:28:11;1298.40;;;928.17;;
51949;SDS011;37974;53.218;6.640;2024-03-08T08:30:37;1071.15;;;877.08;;
51949;SDS011;37974;53.218;6.640;2024-03-08T08:33:03;1341.45;;;956.65;;
51949;SDS011;37974;53.218;6.640;2024-03-08T08:35:30;1282.35;;;938.63;;
51949;SDS011;37974;53.218;6.640;2024-03-08T08:37:57;1462.47;;;981.72;;
51949;SDS011;37974;53.218;6.640;2024-03-08T08:40:24;1497.07;;;980.80;;
51949;SDS011;37974;53.218;6.640;2024-03-08T08:42:51;887.92;;;798.03;;
51949;SDS011;37974;53.218;6.640;2024-03-08T08:45:18;1141.47;;;906.97;;
51949;SDS011;37974;53.218;6.640;2024-03-08T08:47:44;1053.38;;;872.78;;
51949;SDS011;37974;53.218;6.640;2024-03-08T08:50:10;886.22;;;802.05;;
51949;SDS011;37974;53.218;6.640;2024-03-08T08:52:37;989.70;;;849.50;;
51949;SDS011;37974;53.218;6.640;2024-03-08T08:55:04;1236.75;;;925.75;;
51949;SDS011;37974;53.218;6.640;2024-03-08T08:57:31;951.58;;;837.08;;
51949;SDS011;37974;53.218;6.640;2024-03-08T08:59:58;873.97;;;787.45;;
51949;SDS011;37974;53.218;6.640;2024-03-08T09:02:25;1046.78;;;878.38;;
51949;SDS011;37974;53.218;6.640;2024-03-08T09:04:51;911.35;;;820.20;;
51949;SDS011;37974;53.218;6.640;2024-03-08T09:07:17;898.63;;;811.33;;
51949;SDS011;37974;53.218;6.640;2024-03-08T09:09:44;950.50;;;849.58;;
51949;SDS011;37974;53.218;6.640;2024-03-08T09:12:10;670.05;;;619.80;;
51949;SDS011;37974;53.218;6.640;2024-03-08T09:14:39;838.00;;;759.65;;
51949;SDS011;37974;53.218;6.640;2024-03-08T09:17:05;849.50;;;769.35;;
51949;SDS011;37974;53.218;6.640;2024-03-08T09:19:34;789.63;;;721.30;;
51949;SDS011;37974;53.218;6.640;2024-03-08T09:22:00;753.30;;;688.58;;
51949;SDS011;37974;53.218;6.640;2024-03-08T09:24:26;865.60;;;783.20;;
51949;SDS011;37974;53.218;6.640;2024-03-08T09:26:51;704.08;;;648.53;;
51949;SDS011;37974;53.218;6.640;2024-03-08T09:29:17;738.05;;;677.30;;
51949;SDS011;37974;53.218;6.640;2024-03-08T09:31:43;655.75;;;606.53;;
51949;SDS011;37974;53.218;6.640;2024-03-08T09:34:11;621.45;;;575.53;;
51949;SDS011;37974;53.218;6.640;2024-03-08T09:36:36;736.28;;;676.72;;
51949;SDS011;37974;53.218;6.640;2024-03-08T09:39:02;754.58;;;692.10;;
51949;SDS011;37974;53.218;6.640;2024-03-08T09:41:28;713.92;;;657.20;;
51949;SDS011;37974;53.218;6.640;2024-03-08T09:43:56;604.80;;;560.13;;
51949;SDS011;37974;53.218;6.640;2024-03-08T09:46:24;653.83;;;605.15;;
51949;SDS011;37974;53.218;6.640;2024-03-08T09:48:52;714.83;;;658.28;;
51949;SDS011;37974;53.218;6.640;2024-03-08T09:51:20;658.45;;;609.33;;
51949;SDS011;37974;53.218;6.640;2024-03-08T09:53:48;640.25;;;592.67;;
51949;SDS011;37974;53.218;6.640;2024-03-08T09:56:14;685.88;;;634.47;;
51949;SDS011;37974;53.218;6.640;2024-03-08T09:58:40;676.97;;;625.92;;
51949;SDS011;37974;53.218;6.640;2024-03-08T10:01:39;678.70;;;626.95;;
51949;SDS011;37974;53.218;6.640;2024-03-08T10:04:04;608.65;;;564.40;;
51949;SDS011;37974;53.218;6.640;2024-03-08T10:06:31;586.72;;;543.05;;
51949;SDS011;37974;53.218;6.640;2024-03-08T10:08:57;669.72;;;620.30;;
51949;SDS011;37974;53.218;6.640;2024-03-08T10:11:24;654.22;;;605.55;;
51949;SDS011;37974;53.218;6.640;2024-03-08T10:13:50;568.47;;;527.10;;
51949;SDS011;37974;53.218;6.640;2024-03-08T10:16:16;537.55;;;499.02;;
51949;SDS011;37974;53.218;6.640;2024-03-08T10:18:44;585.60;;;542.03;;
51949;SDS011;37974;53.218;6.640;2024-03-08T10:21:11;565.10;;;522.88;;
51949;SDS011;37974;53.218;6.640;2024-03-08T10:23:39;558.97;;;517.90;;
51949;SDS011;37974;53.218;6.640;2024-03-08T10:26:11;543.15;;;503.75;;
51949;SDS011;37974;53.218;6.640;2024-03-08T10:28:44;522.58;;;485.25;;
51949;SDS011;37974;53.218;6.640;2024-03-08T10:31:13;501.85;;;465.58;;
51949;SDS011;37974;53.218;6.640;2024-03-08T10:33:40;550.05;;;509.98;;
51949;SDS011;37974;53.218;6.640;2024-03-08T10:36:07;591.58;;;547.38;;
51949;SDS011;37974;53.218;6.640;2024-03-08T10:38:36;565.58;;;523.53;;
51949;SDS011;37974;53.218;6.640;2024-03-08T10:41:05;612.78;;;567.00;;
51949;SDS011;37974;53.218;6.640;2024-03-08T10:43:33;492.80;;;458.27;;
51949;SDS011;37974;53.218;6.640;2024-03-08T10:46:21;305.90;;;285.88;;
51949;SDS011;37974;53.218;6.640;2024-03-08T10:48:55;365.13;;;340.50;;
51949;SDS011;37974;53.218;6.640;2024-03-08T10:51:24;476.15;;;442.92;;
51949;SDS011;37974;53.218;6.640;2024-03-08T10:53:51;291.33;;;271.40;;
51949;SDS011;37974;53.218;6.640;2024-03-08T10:56:19;248.00;;;231.52;;
51949;SDS011;37974;53.218;6.640;2024-03-08T10:58:44;438.17;;;408.20;;
51949;SDS011;37974;53.218;6.640;2024-03-08T11:01:12;255.80;;;238.88;;
51949;SDS011;37974;53.218;6.640;2024-03-08T11:06:14;212.30;;;197.80;;
51949;SDS011;37974;53.218;6.640;2024-03-08T11:08:40;163.70;;;152.02;;
51949;SDS011;37974;53.218;6.640;2024-03-08T11:11:09;188.10;;;174.93;;
51949;SDS011;37974;53.218;6.640;2024-03-08T11:13:52;212.93;;;198.45;;
51949;SDS011;37974;53.218;6.640;2024-03-08T11:18:54;242.63;;;226.38;;
51949;SDS011;37974;53.218;6.640;2024-03-08T11:21:29;231.32;;;215.63;;
51949;SDS011;37974;53.218;6.640;2024-03-08T11:24:01;190.90;;;177.40;;
51949;SDS011;37974;53.218;6.640;2024-03-08T11:26:33;200.73;;;186.77;;
51949;SDS011;37974;53.218;6.640;2024-03-08T11:31:52;245.38;;;229.00;;
51949;SDS011;37974;53.218;6.640;2024-03-08T11:34:30;201.75;;;188.10;;
51949;SDS011;37974;53.218;6.640;2024-03-08T11:36:58;156.60;;;145.15;;
51949;SDS011;37974;53.218;6.640;2024-03-08T11:39:24;150.38;;;139.50;;
51949;SDS011;37974;53.218;6.640;2024-03-08T11:41:50;199.77;;;185.77;;
51949;SDS011;37974;53.218;6.640;2024-03-08T11:44:17;170.95;;;159.07;;
51949;SDS011;37974;53.218;6.640;2024-03-08T11:46:43;165.43;;;153.35;;
51949;SDS011;37974;53.218;6.640;2024-03-08T11:49:14;211.98;;;197.73;;
51949;SDS011;37974;53.218;6.640;2024-03-08T11:51:41;191.57;;;178.23;;
51949;SDS011;37974;53.218;6.640;2024-03-08T11:54:12;182.57;;;169.65;;
51949;SDS011;37974;53.218;6.640;2024-03-08T11:56:38;140.10;;;129.65;;
51949;SDS011;37974;53.218;6.640;2024-03-08T11:59:05;170.18;;;158.10;;
51949;SDS011;37974;53.218;6.640;2024-03-08T12:01:35;159.88;;;148.13;;
51949;SDS011;37974;53.218;6.640;2024-03-08T12:04:01;163.68;;;151.75;;
51949;SDS011;37974;53.218;6.640;2024-03-08T12:06:36;138.68;;;128.38;;
51949;SDS011;37974;53.218;6.640;2024-03-08T12:09:04;152.00;;;141.05;;
51949;SDS011;37974;53.218;6.640;2024-03-08T12:11:34;145.70;;;135.05;;
51949;SDS011;37974;53.218;6.640;2024-03-08T12:14:01;170.20;;;158.15;;
51949;SDS011;37974;53.218;6.640;2024-03-08T12:16:27;208.70;;;194.55;;
51949;SDS011;37974;53.218;6.640;2024-03-08T12:18:53;249.25;;;232.93;;
51949;SDS011;37974;53.218;6.640;2024-03-08T12:21:19;255.10;;;237.80;;
51949;SDS011;37974;53.218;6.640;2024-03-08T12:23:47;143.63;;;132.88;;
51949;SDS011;37974;53.218;6.640;2024-03-08T12:26:17;219.43;;;204.50;;
51949;SDS011;37974;53.218;6.640;2024-03-08T12:28:48;164.10;;;152.38;;
51949;SDS011;37974;53.218;6.640;2024-03-08T12:31:15;146.13;;;135.50;;
51949;SDS011;37974;53.218;6.640;2024-03-08T12:33:49;157.68;;;146.23;;
51949;SDS011;37974;53.218;6.640;2024-03-08T12:36:15;202.85;;;188.93;;
51949;SDS011;37974;53.218;6.640;2024-03-08T12:38:44;194.45;;;181.10;;
51949;SDS011;37974;53.218;6.640;2024-03-08T12:41:13;165.35;;;153.93;;
51949;SDS011;37974;53.218;6.640;2024-03-08T12:43:40;129.60;;;120.03;;
51949;SDS011;37974;53.218;6.640;2024-03-08T12:46:05;139.07;;;128.82;;
51949;SDS011;37974;53.218;6.640;2024-03-08T12:48:34;156.98;;;145.55;;
51949;SDS011;37974;53.218;6.640;2024-03-08T12:51:01;203.23;;;189.48;;
51949;SDS011;37974;53.218;6.640;2024-03-08T12:53:27;262.92;;;245.55;;
51949;SDS011;37974;53.218;6.640;2024-03-08T12:55:54;235.15;;;219.30;;
51949;SDS011;37974;53.218;6.640;2024-03-08T12:58:21;214.57;;;200.02;;
51949;SDS011;37974;53.218;6.640;2024-03-08T13:00:47;219.00;;;204.52;;
51949;SDS011;37974;53.218;6.640;2024-03-08T13:03:14;226.68;;;211.85;;
51949;SDS011;37974;53.218;6.640;2024-03-08T13:05:40;214.43;;;199.98;;
51949;SDS011;37974;53.218;6.640;2024-03-08T13:08:07;243.70;;;227.82;;
51949;SDS011;37974;53.218;6.640;2024-03-08T13:10:41;227.18;;;212.15;;
51949;SDS011;37974;53.218;6.640;2024-03-08T13:13:09;235.43;;;219.88;;
51949;SDS011;37974;53.218;6.640;2024-03-08T13:15:36;234.80;;;219.38;;
51949;SDS011;37974;53.218;6.640;2024-03-08T13:18:02;261.77;;;244.70;;
51949;SDS011;37974;53.218;6.640;2024-03-08T13:20:28;244.13;;;228.43;;
51949;SDS011;37974;53.218;6.640;2024-03-08T13:22:54;243.90;;;228.05;;
51949;SDS011;37974;53.218;6.640;2024-03-08T13:25:21;212.35;;;198.32;;
51949;SDS011;37974;53.218;6.640;2024-03-08T13:27:47;216.40;;;202.32;;
51949;SDS011;37974;53.218;6.640;2024-03-08T13:30:14;245.10;;;229.38;;
51949;SDS011;37974;53.218;6.640;2024-03-08T13:32:43;208.40;;;194.55;;
51949;SDS011;37974;53.218;6.640;2024-03-08T13:35:09;220.95;;;206.13;;
51949;SDS011;37974;53.218;6.640;2024-03-08T13:37:41;237.43;;;222.27;;
51949;SDS011;37974;53.218;6.640;2024-03-08T13:40:07;251.88;;;235.82;;
51949;SDS011;37974;53.218;6.640;2024-03-08T13:42:40;207.57;;;193.48;;
51949;SDS011;37974;53.218;6.640;2024-03-08T13:45:08;238.68;;;222.82;;
51949;SDS011;37974;53.218;6.640;2024-03-08T13:47:38;228.60;;;214.02;;
51949;SDS011;37974;53.218;6.640;2024-03-08T13:50:06;242.95;;;226.93;;
51949;SDS011;37974;53.218;6.640;2024-03-08T13:52:36;239.00;;;223.82;;
51949;SDS011;37974;53.218;6.640;2024-03-08T13:55:03;212.95;;;198.95;;
51949;SDS011;37974;53.218;6.640;2024-03-08T13:57:30;208.48;;;194.85;;